Latest Weather Observations for Roebourne Airport

IDW60801

Issued at 10:02 pm WST Monday 26 January 2015 (issued every 30 minutes, with the page automatically refreshed every 10 minutes)

About weather observations | Map of weather stations | Latest weather observations for WA | Other Formats
Station Details ID: 004090 Name: ROEBOURNE AERO Lat: -20.76 Lon: 117.16 Height: 10.7 m
Data from the previous 72 hours. | See also: Recent months at Roebourne Airport
Date/Time
WST
Temp
°C
App
Temp
°C
Dew
Point
Rel
Hum
%
Delta-T
°C
Wind Press
QNH
hPa
Press
MSL
hPa
Rain
since 9 am
mm
Dir
 
Spd
km/h
Gust
km/h
Spd
kts
Gust
kts
26/10:00pm 27.6 28.6 22.1 72 3.7 W 20 24 11 13 1006.4 1006.3 0.0
26/09:30pm 27.8 29.0 22.1 71 3.8 W 19 24 10 13 1006.3 1006.2 0.0
26/09:00pm 28.0 28.9 22.0 70 4.0 W 20 26 11 14 1006.0 1005.9 0.0
26/08:30pm 28.3 29.4 22.3 70 4.1 WNW 20 28 11 15 1005.8 1005.7 0.0
26/08:00pm 28.4 28.9 21.9 68 4.4 WNW 22 28 12 15 1005.8 1005.7 0.0
26/07:30pm 28.7 29.1 21.7 66 4.7 NW 22 28 12 15 1005.7 1005.6 0.0
26/07:00pm 29.0 29.4 21.7 64 4.9 NW 22 30 12 16 1005.6 1005.5 0.0
26/06:30pm 29.6 29.8 22.1 64 5.1 NNW 24 30 13 16 1005.3 1005.2 0.0
26/06:00pm 30.3 30.4 21.9 60 5.7 NW 24 33 13 18 1005.2 1005.1 0.0
26/05:30pm 31.1 30.9 22.1 58 6.1 NNW 26 35 14 19 1005.3 1005.2 0.0
26/05:00pm 32.0 32.0 22.4 57 6.6 NNW 26 33 14 18 1005.2 1005.1 0.0
26/04:30pm 31.1 30.8 21.9 58 6.2 N 26 33 14 18 1005.1 1005.0 0.0
26/04:00pm 31.5 30.9 21.9 56 6.5 N 28 37 15 20 1005.1 1005.0 0.0
26/03:30pm 32.3 32.0 21.8 54 7.1 NNW 26 35 14 19 1005.3 1005.2 0.0
26/03:00pm 32.0 32.4 22.4 57 6.6 NNW 24 35 13 19 1005.4 1005.3 0.0
26/02:30pm 32.4 32.5 21.9 54 7.1 NNW 24 35 13 19 1005.7 1005.6 0.0
26/02:00pm 33.1 33.4 22.2 52 7.5 NNW 24 33 13 18 1005.7 1005.6 0.0
26/01:30pm 32.4 32.4 21.6 53 7.3 NNW 24 35 13 19 1006.1 1006.0 0.0
26/01:00pm 33.6 33.8 22.1 51 7.9 NNW 24 37 13 20 1006.1 1006.0 0.0
26/12:30pm 33.2 33.1 20.7 47 8.4 N 22 32 12 17 1006.4 1006.3 0.0
26/12:00pm 33.1 33.8 21.6 51 7.8 NNE 20 32 11 17 1006.8 1006.7 0.0
26/11:30am 32.6 33.2 21.1 50 7.7 NNE 19 33 10 18 1007.2 1007.1 0.0
26/11:00am 32.4 32.9 21.9 54 7.1 NNE 22 33 12 18 1007.6 1007.5 0.0
26/10:30am 31.9 31.9 21.7 54 6.9 NNE 24 33 13 18 1007.6 1007.5 0.0
26/10:00am 32.1 32.9 22.5 57 6.6 NE 22 33 12 18 1007.8 1007.7 0.0
26/09:30am 31.3 31.8 22.6 60 5.9 NNE 24 30 13 16 1007.8 1007.7 0.0
26/09:00am 31.1 33.5 23.7 64 5.1 NNE 17 26 9 14 1008.0 1007.9 0.0
26/08:30am 29.2 32.1 23.9 73 3.7 NNE 15 19 8 10 1008.0 1007.9 0.0
26/08:00am 29.1 31.7 23.3 71 4.0 NE 15 19 8 10 1008.0 1007.9 0.0
26/07:30am 28.6 31.8 23.1 72 3.8 ENE 11 13 6 7 1007.9 1007.8 0.0
26/07:00am 27.8 32.1 22.7 74 3.5 ENE 4 7 2 4 1007.7 1007.6 0.0
26/06:30am 27.2 31.2 22.8 77 3.0 E 6 7 3 4 1007.7 1007.6 0.0
26/06:00am 26.9 29.9 22.7 78 2.8 SE 11 15 6 8 1007.4 1007.3 0.0
26/05:30am 26.9 30.0 22.9 79 2.7 SE 11 15 6 8 1007.0 1006.9 0.0
26/05:00am 26.8 32.0 22.8 79 2.7 CALM 0 6 0 3 1006.0 1005.9 0.0
26/04:30am 26.7 30.5 22.8 79 2.6 W 7 7 4 4 1005.5 1005.4 0.0
26/04:00am 26.8 29.5 22.8 79 2.7 W 13 17 7 9 1005.3 1005.2 0.0
26/03:30am 26.8 29.1 22.8 79 2.7 W 15 17 8 9 1005.1 1005.0 0.0
26/03:00am 27.0 30.0 23.3 80 2.5 W 13 17 7 9 1005.2 1005.1 0.0
26/02:30am 27.2 29.6 23.0 78 2.9 W 15 17 8 9 1005.4 1005.3 0.0
26/02:00am 27.5 30.9 23.3 78 2.9 WNW 11 15 6 8 1005.7 1005.6 0.0
26/01:30am 27.5 30.5 23.3 78 2.9 WNW 13 17 7 9 1005.8 1005.7 0.0
26/01:00am 27.7 30.9 23.7 79 2.8 NW 13 17 7 9 1005.9 1005.8 0.0
26/12:30am 27.9 31.5 23.7 78 2.9 NW 11 17 6 9 1005.9 1005.8 0.0
26/12:00am 27.7 31.3 23.7 79 2.8 NW 11 17 6 9 1006.0 1005.9 0.0
 
Date/Time
WST
Temp
°C
App
Temp
°C
Dew
Point
Rel
Hum
%
Delta-T
°C
Wind Press
QNH
hPa
Press
MSL
hPa
Rain
since 9 am
mm
Dir
 
Spd
km/h
Gust
km/h
Spd
kts
Gust
kts
25/11:30pm 28.0 30.0 23.6 77 3.0 NW 19 26 10 14 1005.9 1005.8 0.0
25/11:00pm 28.0 30.0 24.0 79 2.8 NNW 20 28 11 15 1005.6 1005.5 0.0
25/10:30pm 28.1 30.3 24.3 80 2.6 NNW 20 24 11 13 1006.0 1005.9 0.0
25/10:00pm 28.3 31.1 24.3 79 2.8 NNW 17 20 9 11 1006.3 1006.2 0.0
25/09:30pm 28.5 31.6 24.1 77 3.0 N 15 19 8 10 1006.6 1006.5 0.0
25/09:00pm 28.8 31.5 24.1 76 3.3 N 17 20 9 11 1007.2 1007.1 0.0
25/08:30pm 29.0 32.4 24.1 75 3.4 NE 13 15 7 8 1007.9 1007.8 0.0
25/08:00pm 29.2 33.4 24.1 74 3.5 NE 9 11 5 6 1008.4 1008.4 0.0
25/07:30pm 29.3 34.1 24.4 75 3.4 NNE 7 11 4 6 1008.2 1008.1 0.0
25/07:00pm 29.5 32.2 24.1 72 3.8 N 17 20 9 11 1007.2 1007.1 0.0
25/06:30pm 30.3 32.2 23.7 68 4.6 N 20 28 11 15 1006.9 1006.8 0.0
25/06:00pm 30.9 32.6 24.1 67 4.7 NNW 22 30 12 16 1006.8 1006.7 0.0
25/05:30pm 31.5 33.0 24.4 66 5.0 N 24 32 13 17 1006.2 1006.1 0.0
25/05:00pm 32.4 33.4 24.2 62 5.7 N 26 33 14 18 1006.1 1006.0 0.0
25/04:30pm 32.6 33.4 23.8 59 6.1 NNW 26 35 14 19 1005.6 1005.5 0.0
25/04:00pm 33.5 34.1 24.1 58 6.6 NNW 28 35 15 19 1005.2 1005.1 0.0
25/03:30pm 34.2 33.7 22.9 51 7.8 N 30 43 16 23 1005.4 1005.3 0.0
25/03:00pm 34.9 34.8 23.6 52 7.9 N 30 39 16 21 1005.7 1005.6 0.0
25/02:30pm 34.4 34.0 23.7 53 7.5 NNE 32 43 17 23 1006.4 1006.3 0.0
25/02:00pm 35.2 36.0 23.8 51 8.0 NNE 26 41 14 22 1006.5 1006.4 0.0
25/01:30pm 34.9 34.8 23.6 52 7.9 NNE 30 41 16 22 1006.7 1006.6 0.0
25/01:00pm 34.3 34.6 24.2 55 7.1 N 30 39 16 21 1006.8 1006.7 0.0
25/12:30pm 34.6 34.5 24.2 54 7.3 NNE 32 44 17 24 1007.3 1007.2 0.0
25/12:00pm 33.9 34.1 24.7 58 6.5 NNE 32 39 17 21 1007.6 1007.5 0.0
25/11:30am 32.5 32.4 24.5 62 5.6 NNE 33 46 18 25 1008.2 1008.1 0.0
25/11:00am 31.8 32.1 24.9 67 4.9 NNE 32 41 17 22 1008.3 1008.2 0.0
25/10:30am 32.7 35.3 25.5 66 5.1 NNE 22 28 12 15 1007.9 1007.8 0.0
25/10:00am 33.2 36.7 24.9 61 5.9 NNE 15 22 8 12 1007.4 1007.3 0.0
25/09:30am 32.7 37.1 24.5 62 5.8 NW 9 15 5 8 1006.7 1006.6 0.0
25/09:00am 32.3 36.4 24.6 64 5.4 WNW 11 19 6 10 1006.5 1006.4 0.0
25/08:30am 31.7 36.6 25.3 69 4.5 WNW 9 19 5 10 1006.6 1006.5 0.0
25/08:00am 29.9 34.0 25.2 76 3.3 WNW 13 17 7 9 1006.9 1006.8 0.0
25/07:30am 29.4 33.1 25.2 78 3.0 NNW 15 19 8 10 1006.4 1006.3 0.0
25/07:00am 29.0 32.6 25.0 79 2.8 NNW 15 19 8 10 1006.1 1006.0 0.0
25/06:30am 29.0 33.1 25.2 80 2.7 NW 13 17 7 9 1005.5 1005.4 0.0
25/06:00am 29.3 33.9 25.3 79 2.8 NW 11 13 6 7 1005.1 1005.0 0.0
25/05:30am 29.3 33.9 25.3 79 2.8 NW 11 13 6 7 1004.7 1004.6 0.0
25/05:00am 29.3 33.9 25.3 79 2.8 NW 11 17 6 9 1004.3 1004.2 0.0
25/04:30am 29.6 33.6 25.1 77 3.2 WNW 13 17 7 9 1004.4 1004.3 0.0
25/04:00am 29.8 33.0 24.9 75 3.4 WNW 17 24 9 13 1004.0 1003.9 0.0
25/03:30am 30.0 33.2 24.9 74 3.6 W 17 20 9 11 1003.8 1003.7 0.0
25/03:00am 30.2 33.3 24.8 73 3.8 W 17 22 9 12 1003.6 1003.5 0.0
25/02:30am 30.0 32.0 24.6 73 3.8 W 22 28 12 15 1003.3 1003.2 0.0
25/02:00am 30.6 33.8 24.3 69 4.4 W 15 20 8 11 1003.5 1003.4 0.0
25/01:30am 31.1 32.4 22.7 61 5.7 WNW 20 26 11 14 1003.5 1003.4 0.0
25/01:00am 31.4 32.8 21.8 56 6.5 NNW 17 20 9 11 1003.7 1003.6 0.0
25/12:30am 30.6 31.2 23.5 66 4.9 NNW 26 35 14 19 1004.1 1004.0 0.0
25/12:00am 30.6 31.9 24.7 71 4.1 NW 26 35 14 19 1004.8 1004.7 0.0
 
Date/Time
WST
Temp
°C
App
Temp
°C
Dew
Point
Rel
Hum
%
Delta-T
°C
Wind Press
QNH
hPa
Press
MSL
hPa
Rain
since 9 am
mm
Dir
 
Spd
km/h
Gust
km/h
Spd
kts
Gust
kts
24/11:30pm 31.4 33.6 24.8 68 4.6 NNW 22 28 12 15 1005.1 1005.0 0.0
24/11:00pm 31.8 35.0 24.4 65 5.2 N 15 19 8 10 1005.6 1005.5 0.0
24/10:30pm 32.4 35.5 24.2 62 5.7 NNE 15 19 8 10 1005.7 1005.6 0.0
24/10:00pm 32.8 36.6 24.0 60 6.2 WNW 11 15 6 8 1005.4 1005.3 0.0
24/09:30pm 32.5 36.2 24.5 62 5.6 WSW 13 19 7 10 1005.7 1005.6 0.0
24/09:00pm 32.3 34.7 24.6 64 5.4 WNW 20 28 11 15 1004.5 1004.4 0.0
24/08:30pm 32.7 33.8 23.6 58 6.3 WNW 24 30 13 16 1004.4 1004.3 0.0
24/08:00pm 33.5 33.8 22.3 52 7.7 WNW 24 32 13 17 1004.2 1004.1 0.0
24/07:30pm 34.7 34.1 20.6 43 9.5 WNW 24 33 13 18 1004.0 1003.9 0.0
24/07:00pm 35.0 33.3 19.8 41 10.1 WNW 28 35 15 19 1003.4 1003.3 0.0
24/06:30pm 35.8 34.1 19.7 39 10.7 WNW 28 35 15 19 1003.3 1003.2 0.0
24/06:00pm 36.4 35.3 19.4 37 11.3 NW 24 30 13 16 1003.3 1003.2 0.0
24/05:30pm 36.8 34.6 18.8 34 11.9 NW 28 37 15 20 1002.7 1002.6 0.0
24/05:00pm 36.2 33.6 18.7 35 11.5 WNW 30 39 16 21 1002.7 1002.6 0.0
24/04:30pm 37.4 36.1 19.8 35 11.8 NW 26 33 14 18 1002.8 1002.7 0.0
24/04:00pm 37.6 34.4 18.1 32 12.8 NW 32 39 17 21 1002.5 1002.4 0.0
24/03:30pm 37.9 34.9 17.8 30 13.1 NW 30 37 16 20 1002.7 1002.6 0.0
24/03:00pm 38.4 35.5 18.8 32 13.0 NNW 32 39 17 21 1002.9 1002.8 0.0
24/02:30pm 40.9 38.0 18.8 27 14.7 NNW 32 39 17 21 1003.1 1003.0 0.0
24/02:00pm 40.6 37.8 19.1 28 14.4 NNW 32 39 17 21 1003.3 1003.2 0.0
24/01:30pm 40.1 37.5 18.7 29 14.2 N 30 37 16 20 1003.4 1003.3 0.0
24/01:00pm 41.3 39.3 19.1 27 14.9 N 28 33 15 18 1003.8 1003.7 0.0
24/12:30pm 39.4 38.5 19.1 30 13.5 NNW 22 32 12 17 1004.3 1004.2 0.0
24/12:00pm 41.0 40.6 19.4 28 14.6 N 20 26 11 14 1004.6 1004.5 0.0
24/11:30am 39.7 39.8 19.9 31 13.3 N 19 26 10 14 1005.0 1004.9 0.0
24/11:00am 41.2 42.0 17.2 24 15.7 NNW 9 15 5 8 1005.4 1005.3 0.0
24/10:30am 39.4 39.3 16.9 26 14.6 NNE 13 22 7 12 1005.9 1005.8 0.0
24/10:00am 39.2 38.0 16.2 26 14.8 NNE 17 24 9 13 1006.1 1006.0 0.0
24/09:30am 39.5 38.3 17.0 26 14.6 NE 19 26 10 14 1006.3 1006.2 0.0
24/09:00am 39.1 38.6 17.8 28 14.0 ENE 17 22 9 12 1006.3 1006.2 0.0
24/08:30am 38.2 37.3 18.1 30 13.2 ENE 20 30 11 16 1006.1 1006.0 0.0
24/08:00am 36.9 36.3 18.9 34 11.9 NE 20 26 11 14 1005.5 1005.4 0.0
24/07:30am 34.4 39.2 22.1 48 8.4 CALM 0 0 0 0 1005.6 1005.5 0.0
24/07:00am 30.6 35.9 23.0 64 5.2 CALM 0 0 0 0 1005.7 1005.6 0.0
24/06:30am 29.9 33.1 22.3 63 5.2 WSW 9 11 5 6 1005.6 1005.5 0.0
24/06:00am 30.6 34.6 22.7 62 5.4 N 6 9 3 5 1005.1 1005.0 0.0
24/05:30am 31.2 35.1 23.0 61 5.6 NNE 7 11 4 6 1004.8 1004.7 0.0
24/05:00am 31.9 34.9 23.4 60 5.9 NNE 13 19 7 10 1004.3 1004.2 0.0
24/04:30am 32.9 34.8 22.7 55 7.0 N 17 22 9 12 1003.6 1003.5 0.0
24/04:00am 33.7 36.0 22.1 50 7.9 NNE 13 22 7 12 1003.4 1003.3 0.0
24/03:30am 33.8 34.5 21.2 47 8.5 W 19 24 10 13 1002.2 1002.1 0.0
24/03:00am 33.3 36.1 21.5 50 8.0 SW 9 13 5 7 1002.1 1002.0 0.0
24/02:30am 33.6 34.8 21.4 48 8.3 SSW 17 22 9 12 1002.2 1002.1 0.0
24/02:00am 32.3 35.2 23.8 61 5.9 SW 15 20 8 11 1002.7 1002.6 0.0
24/01:30am 31.6 33.7 24.7 67 4.8 SW 22 30 12 16 1003.5 1003.4 0.0
24/01:18am 31.5 33.7 24.9 68 4.6 SW 22 33 12 18 1003.4 1003.3 0.0
24/01:00am 31.5 36.2 24.9 68 4.7 SW 9 15 5 8 1004.5 1004.4 0.0
24/12:30am 31.4 36.4 24.8 68 4.6 W 7 11 4 6 1005.0 1004.9 0.0
24/12:00am 31.6 35.0 24.7 67 4.9 SW 15 22 8 12 1005.3 1005.2 0.0
 
Date/Time
WST
Temp
°C
App
Temp
°C
Dew
Point
Rel
Hum
%
Delta-T
°C
Wind Press
QNH
hPa
Press
MSL
hPa
Rain
since 9 am
mm
Dir
 
Spd
km/h
Gust
km/h
Spd
kts
Gust
kts
23/11:30pm 31.8 33.3 24.9 67 4.9 W 26 35 14 19 1003.9 1003.8 0.0
23/11:00pm 32.1 32.4 24.9 65 5.1 W 32 43 17 23 1003.8 1003.7 0.0
23/10:30pm 32.6 31.4 24.6 62 5.6 W 39 54 21 29 1003.8 1003.7 0.0
23/10:19pm 34.0 33.4 23.4 54 7.4 W 32 54 17 29 1003.7 1003.6 0.0

Other Formats:

Comma delimited format used in spreadsheet applications
http://www.bom.gov.au/fwo/IDW60801/IDW60801.94308.axf

JavaScript Object Notation format (JSON) in row-major order
http://www.bom.gov.au/fwo/IDW60801/IDW60801.94308.json